sensor_id;sensor_type;location;lat;lon;timestamp;P1;durP1;ratioP1;P2;durP2;ratioP2
41233;SDS011;26968;42.686;23.352;2023-02-26T00:02:14;38.78;;;6.80;;
41233;SDS011;26968;42.686;23.352;2023-02-26T00:04:41;20.10;;;6.43;;
41233;SDS011;26968;42.686;23.352;2023-02-26T00:07:07;24.60;;;6.20;;
41233;SDS011;26968;42.686;23.352;2023-02-26T00:09:32;21.92;;;5.95;;
41233;SDS011;26968;42.686;23.352;2023-02-26T00:11:58;29.17;;;6.25;;
41233;SDS011;26968;42.686;23.352;2023-02-26T00:14:24;34.10;;;5.88;;
41233;SDS011;26968;42.686;23.352;2023-02-26T00:16:54;22.45;;;6.28;;
41233;SDS011;26968;42.686;23.352;2023-02-26T00:19:21;29.33;;;6.80;;
41233;SDS011;26968;42.686;23.352;2023-02-26T00:21:47;24.98;;;7.35;;
41233;SDS011;26968;42.686;23.352;2023-02-26T00:24:12;21.48;;;5.88;;
41233;SDS011;26968;42.686;23.352;2023-02-26T00:26:38;22.92;;;5.97;;
41233;SDS011;26968;42.686;23.352;2023-02-26T00:29:03;15.30;;;5.55;;
41233;SDS011;26968;42.686;23.352;2023-02-26T00:31:29;30.08;;;5.97;;
41233;SDS011;26968;42.686;23.352;2023-02-26T00:33:55;29.85;;;7.50;;
41233;SDS011;26968;42.686;23.352;2023-02-26T00:41:57;28.45;;;6.10;;
41233;SDS011;26968;42.686;23.352;2023-02-26T00:44:23;26.65;;;6.70;;
41233;SDS011;26968;42.686;23.352;2023-02-26T00:49:29;27.15;;;6.30;;
41233;SDS011;26968;42.686;23.352;2023-02-26T00:52:00;35.17;;;7.25;;
41233;SDS011;26968;42.686;23.352;2023-02-26T00:54:27;24.60;;;6.45;;
41233;SDS011;26968;42.686;23.352;2023-02-26T00:56:55;26.23;;;5.75;;
41233;SDS011;26968;42.686;23.352;2023-02-26T00:59:21;21.52;;;5.90;;
41233;SDS011;26968;42.686;23.352;2023-02-26T01:01:48;22.65;;;5.78;;
41233;SDS011;26968;42.686;23.352;2023-02-26T01:04:14;21.85;;;5.47;;
41233;SDS011;26968;42.686;23.352;2023-02-26T01:06:45;27.02;;;6.43;;
41233;SDS011;26968;42.686;23.352;2023-02-26T01:11:59;24.67;;;5.88;;
41233;SDS011;26968;42.686;23.352;2023-02-26T01:14:28;18.70;;;5.90;;
41233;SDS011;26968;42.686;23.352;2023-02-26T01:16:57;29.75;;;6.30;;
41233;SDS011;26968;42.686;23.352;2023-02-26T01:22:32;15.88;;;5.75;;
41233;SDS011;26968;42.686;23.352;2023-02-26T01:27:30;31.23;;;6.95;;
41233;SDS011;26968;42.686;23.352;2023-02-26T01:29:56;32.17;;;6.88;;
41233;SDS011;26968;42.686;23.352;2023-02-26T01:32:24;25.73;;;6.35;;
41233;SDS011;26968;42.686;23.352;2023-02-26T01:40:29;36.88;;;6.32;;
41233;SDS011;26968;42.686;23.352;2023-02-26T01:42:50;20.63;;;5.25;;
41233;SDS011;26968;42.686;23.352;2023-02-26T01:45:25;12.40;;;4.47;;
41233;SDS011;26968;42.686;23.352;2023-02-26T01:48:02;27.38;;;5.75;;
41233;SDS011;26968;42.686;23.352;2023-02-26T01:50:32;19.13;;;5.00;;
41233;SDS011;26968;42.686;23.352;2023-02-26T01:55:55;29.60;;;4.88;;
41233;SDS011;26968;42.686;23.352;2023-02-26T01:58:21;28.55;;;5.93;;
41233;SDS011;26968;42.686;23.352;2023-02-26T02:00:48;22.35;;;5.10;;
41233;SDS011;26968;42.686;23.352;2023-02-26T02:03:14;28.05;;;6.47;;
41233;SDS011;26968;42.686;23.352;2023-02-26T02:05:44;19.40;;;5.00;;
41233;SDS011;26968;42.686;23.352;2023-02-26T02:08:14;17.88;;;4.65;;
41233;SDS011;26968;42.686;23.352;2023-02-26T02:10:41;18.70;;;3.92;;
41233;SDS011;26968;42.686;23.352;2023-02-26T02:13:15;26.00;;;5.65;;
41233;SDS011;26968;42.686;23.352;2023-02-26T02:26:52;20.65;;;5.20;;
41233;SDS011;26968;42.686;23.352;2023-02-26T02:35:10;19.27;;;4.38;;
41233;SDS011;26968;42.686;23.352;2023-02-26T02:37:44;17.08;;;4.95;;
41233;SDS011;26968;42.686;23.352;2023-02-26T02:40:19;10.77;;;4.60;;
41233;SDS011;26968;42.686;23.352;2023-02-26T02:45:46;23.83;;;5.07;;
41233;SDS011;26968;42.686;23.352;2023-02-26T02:48:23;13.23;;;4.60;;
41233;SDS011;26968;42.686;23.352;2023-02-26T02:50:57;23.73;;;4.18;;
41233;SDS011;26968;42.686;23.352;2023-02-26T02:53:27;21.70;;;5.07;;
41233;SDS011;26968;42.686;23.352;2023-02-26T02:56:12;27.95;;;5.93;;
41233;SDS011;26968;42.686;23.352;2023-02-26T02:58:47;16.95;;;4.97;;
41233;SDS011;26968;42.686;23.352;2023-02-26T03:01:18;18.25;;;5.13;;
41233;SDS011;26968;42.686;23.352;2023-02-26T03:04:07;27.40;;;5.20;;
41233;SDS011;26968;42.686;23.352;2023-02-26T03:06:35;19.90;;;4.38;;
41233;SDS011;26968;42.686;23.352;2023-02-26T03:09:01;24.73;;;5.85;;
41233;SDS011;26968;42.686;23.352;2023-02-26T03:11:28;18.73;;;4.50;;
41233;SDS011;26968;42.686;23.352;2023-02-26T03:13:55;18.58;;;4.20;;
41233;SDS011;26968;42.686;23.352;2023-02-26T03:27:02;23.90;;;4.55;;
41233;SDS011;26968;42.686;23.352;2023-02-26T03:29:55;24.83;;;5.15;;
41233;SDS011;26968;42.686;23.352;2023-02-26T03:32:30;23.35;;;5.38;;
41233;SDS011;26968;42.686;23.352;2023-02-26T03:35:13;20.00;;;4.65;;
41233;SDS011;26968;42.686;23.352;2023-02-26T03:37:51;32.55;;;4.88;;
41233;SDS011;26968;42.686;23.352;2023-02-26T03:40:30;15.82;;;4.43;;
41233;SDS011;26968;42.686;23.352;2023-02-26T03:45:34;15.85;;;4.68;;
41233;SDS011;26968;42.686;23.352;2023-02-26T03:48:02;22.55;;;4.20;;
41233;SDS011;26968;42.686;23.352;2023-02-26T03:50:36;24.08;;;4.53;;
41233;SDS011;26968;42.686;23.352;2023-02-26T03:53:06;19.80;;;4.03;;
41233;SDS011;26968;42.686;23.352;2023-02-26T03:55:56;20.25;;;4.35;;
41233;SDS011;26968;42.686;23.352;2023-02-26T03:58:24;11.60;;;4.07;;
41233;SDS011;26968;42.686;23.352;2023-02-26T04:00:51;17.75;;;4.63;;
41233;SDS011;26968;42.686;23.352;2023-02-26T04:03:27;19.17;;;4.20;;
41233;SDS011;26968;42.686;23.352;2023-02-26T04:06:00;20.27;;;4.32;;
41233;SDS011;26968;42.686;23.352;2023-02-26T04:08:27;25.08;;;4.53;;
41233;SDS011;26968;42.686;23.352;2023-02-26T04:11:04;14.48;;;3.78;;
41233;SDS011;26968;42.686;23.352;2023-02-26T04:13:33;15.80;;;3.78;;
41233;SDS011;26968;42.686;23.352;2023-02-26T04:15:58;21.73;;;4.30;;
41233;SDS011;26968;42.686;23.352;2023-02-26T04:18:24;27.52;;;4.40;;
41233;SDS011;26968;42.686;23.352;2023-02-26T04:20:49;16.95;;;4.28;;
41233;SDS011;26968;42.686;23.352;2023-02-26T04:23:15;14.35;;;4.47;;
41233;SDS011;26968;42.686;23.352;2023-02-26T04:25:40;20.30;;;4.85;;
41233;SDS011;26968;42.686;23.352;2023-02-26T04:28:05;29.98;;;6.82;;
41233;SDS011;26968;42.686;23.352;2023-02-26T04:30:31;36.67;;;6.72;;
41233;SDS011;26968;42.686;23.352;2023-02-26T04:32:57;25.80;;;4.13;;
41233;SDS011;26968;42.686;23.352;2023-02-26T04:35:22;20.48;;;4.53;;
41233;SDS011;26968;42.686;23.352;2023-02-26T04:37:47;25.45;;;4.55;;
41233;SDS011;26968;42.686;23.352;2023-02-26T04:40:13;22.95;;;4.53;;
41233;SDS011;26968;42.686;23.352;2023-02-26T04:42:39;29.60;;;4.68;;
41233;SDS011;26968;42.686;23.352;2023-02-26T04:45:04;28.48;;;5.03;;
41233;SDS011;26968;42.686;23.352;2023-02-26T04:47:30;18.83;;;4.82;;
41233;SDS011;26968;42.686;23.352;2023-02-26T04:49:56;19.52;;;4.88;;
41233;SDS011;26968;42.686;23.352;2023-02-26T04:52:21;25.45;;;5.00;;
41233;SDS011;26968;42.686;23.352;2023-02-26T04:54:47;24.45;;;4.95;;
41233;SDS011;26968;42.686;23.352;2023-02-26T04:57:12;22.15;;;5.10;;
41233;SDS011;26968;42.686;23.352;2023-02-26T04:59:37;20.83;;;4.57;;
41233;SDS011;26968;42.686;23.352;2023-02-26T05:02:03;24.63;;;5.18;;
41233;SDS011;26968;42.686;23.352;2023-02-26T05:04:29;28.95;;;5.30;;
41233;SDS011;26968;42.686;23.352;2023-02-26T05:06:55;23.42;;;6.35;;
41233;SDS011;26968;42.686;23.352;2023-02-26T05:09:20;44.10;;;5.78;;
41233;SDS011;26968;42.686;23.352;2023-02-26T05:11:46;29.90;;;5.28;;
41233;SDS011;26968;42.686;23.352;2023-02-26T05:14:12;23.05;;;5.70;;
41233;SDS011;26968;42.686;23.352;2023-02-26T05:16:38;20.02;;;5.50;;
41233;SDS011;26968;42.686;23.352;2023-02-26T05:19:03;33.95;;;5.68;;
41233;SDS011;26968;42.686;23.352;2023-02-26T05:21:29;19.15;;;4.78;;
41233;SDS011;26968;42.686;23.352;2023-02-26T05:23:55;21.77;;;5.32;;
41233;SDS011;26968;42.686;23.352;2023-02-26T05:26:21;30.33;;;5.25;;
41233;SDS011;26968;42.686;23.352;2023-02-26T05:28:47;20.63;;;4.78;;
41233;SDS011;26968;42.686;23.352;2023-02-26T05:31:13;18.90;;;5.45;;
41233;SDS011;26968;42.686;23.352;2023-02-26T05:33:39;28.45;;;5.80;;
41233;SDS011;26968;42.686;23.352;2023-02-26T05:36:06;28.58;;;6.25;;
41233;SDS011;26968;42.686;23.352;2023-02-26T05:38:32;26.55;;;5.55;;
41233;SDS011;26968;42.686;23.352;2023-02-26T05:40:58;24.75;;;5.18;;
41233;SDS011;26968;42.686;23.352;2023-02-26T05:43:24;22.73;;;5.72;;
41233;SDS011;26968;42.686;23.352;2023-02-26T05:45:50;36.47;;;5.40;;
41233;SDS011;26968;42.686;23.352;2023-02-26T05:48:16;31.13;;;6.03;;
41233;SDS011;26968;42.686;23.352;2023-02-26T05:50:42;25.23;;;5.65;;
41233;SDS011;26968;42.686;23.352;2023-02-26T05:53:07;35.83;;;5.05;;
41233;SDS011;26968;42.686;23.352;2023-02-26T05:55:33;28.17;;;6.18;;
41233;SDS011;26968;42.686;23.352;2023-02-26T05:57:58;34.53;;;5.15;;
41233;SDS011;26968;42.686;23.352;2023-02-26T06:00:24;32.80;;;5.60;;
41233;SDS011;26968;42.686;23.352;2023-02-26T06:02:50;40.72;;;6.38;;
41233;SDS011;26968;42.686;23.352;2023-02-26T06:05:15;31.40;;;5.22;;
41233;SDS011;26968;42.686;23.352;2023-02-26T06:07:41;27.92;;;5.50;;
41233;SDS011;26968;42.686;23.352;2023-02-26T06:10:06;50.78;;;6.28;;
41233;SDS011;26968;42.686;23.352;2023-02-26T06:12:33;36.13;;;5.82;;
41233;SDS011;26968;42.686;23.352;2023-02-26T06:14:59;32.38;;;5.75;;
41233;SDS011;26968;42.686;23.352;2023-02-26T06:17:24;25.65;;;6.22;;
41233;SDS011;26968;42.686;23.352;2023-02-26T06:19:49;31.60;;;5.43;;
41233;SDS011;26968;42.686;23.352;2023-02-26T06:22:16;32.47;;;5.80;;
41233;SDS011;26968;42.686;23.352;2023-02-26T06:24:41;29.58;;;5.07;;
41233;SDS011;26968;42.686;23.352;2023-02-26T06:27:07;26.25;;;5.07;;
41233;SDS011;26968;42.686;23.352;2023-02-26T06:29:32;34.95;;;5.10;;
41233;SDS011;26968;42.686;23.352;2023-02-26T06:31:58;31.35;;;5.70;;
41233;SDS011;26968;42.686;23.352;2023-02-26T06:34:23;21.83;;;4.63;;
41233;SDS011;26968;42.686;23.352;2023-02-26T06:36:49;28.08;;;5.55;;
41233;SDS011;26968;42.686;23.352;2023-02-26T06:39:14;28.75;;;5.00;;
41233;SDS011;26968;42.686;23.352;2023-02-26T06:41:40;21.02;;;4.47;;
41233;SDS011;26968;42.686;23.352;2023-02-26T06:44:05;35.92;;;5.78;;
41233;SDS011;26968;42.686;23.352;2023-02-26T06:46:31;25.75;;;4.88;;
41233;SDS011;26968;42.686;23.352;2023-02-26T06:48:56;28.73;;;4.95;;
41233;SDS011;26968;42.686;23.352;2023-02-26T06:51:21;39.92;;;5.28;;
41233;SDS011;26968;42.686;23.352;2023-02-26T06:53:47;29.40;;;5.32;;
41233;SDS011;26968;42.686;23.352;2023-02-26T06:56:12;36.33;;;4.72;;
41233;SDS011;26968;42.686;23.352;2023-02-26T06:58:37;22.17;;;4.40;;
41233;SDS011;26968;42.686;23.352;2023-02-26T07:01:03;34.13;;;6.32;;
41233;SDS011;26968;42.686;23.352;2023-02-26T07:03:29;31.60;;;4.88;;
41233;SDS011;26968;42.686;23.352;2023-02-26T07:05:55;25.63;;;4.20;;
41233;SDS011;26968;42.686;23.352;2023-02-26T07:08:20;34.95;;;5.72;;
41233;SDS011;26968;42.686;23.352;2023-02-26T07:10:46;24.63;;;4.63;;
41233;SDS011;26968;42.686;23.352;2023-02-26T07:13:13;29.90;;;4.57;;
41233;SDS011;26968;42.686;23.352;2023-02-26T07:15:39;31.95;;;4.93;;
41233;SDS011;26968;42.686;23.352;2023-02-26T07:18:04;23.58;;;4.20;;
41233;SDS011;26968;42.686;23.352;2023-02-26T07:20:30;33.58;;;5.60;;
41233;SDS011;26968;42.686;23.352;2023-02-26T07:22:56;24.95;;;4.53;;
41233;SDS011;26968;42.686;23.352;2023-02-26T07:25:22;32.00;;;4.85;;
41233;SDS011;26968;42.686;23.352;2023-02-26T07:27:48;39.35;;;6.35;;
41233;SDS011;26968;42.686;23.352;2023-02-26T07:30:14;31.85;;;4.88;;
41233;SDS011;26968;42.686;23.352;2023-02-26T07:32:40;35.28;;;4.97;;
41233;SDS011;26968;42.686;23.352;2023-02-26T07:35:06;26.02;;;4.72;;
41233;SDS011;26968;42.686;23.352;2023-02-26T07:37:32;26.65;;;4.78;;
41233;SDS011;26968;42.686;23.352;2023-02-26T07:39:57;23.20;;;4.80;;
41233;SDS011;26968;42.686;23.352;2023-02-26T07:42:23;22.17;;;4.63;;
41233;SDS011;26968;42.686;23.352;2023-02-26T07:44:48;29.55;;;4.80;;
41233;SDS011;26968;42.686;23.352;2023-02-26T07:47:14;23.70;;;4.70;;
41233;SDS011;26968;42.686;23.352;2023-02-26T07:49:39;31.23;;;5.10;;
41233;SDS011;26968;42.686;23.352;2023-02-26T07:52:04;26.88;;;4.38;;
41233;SDS011;26968;42.686;23.352;2023-02-26T07:54:32;32.05;;;4.40;;
41233;SDS011;26968;42.686;23.352;2023-02-26T07:56:58;33.95;;;4.22;;
41233;SDS011;26968;42.686;23.352;2023-02-26T07:59:23;29.85;;;4.75;;
41233;SDS011;26968;42.686;23.352;2023-02-26T08:01:49;24.10;;;4.18;;
41233;SDS011;26968;42.686;23.352;2023-02-26T08:04:14;29.38;;;4.45;;
41233;SDS011;26968;42.686;23.352;2023-02-26T08:06:41;29.05;;;5.97;;
41233;SDS011;26968;42.686;23.352;2023-02-26T08:09:07;35.50;;;5.18;;
41233;SDS011;26968;42.686;23.352;2023-02-26T08:11:32;32.00;;;5.15;;
41233;SDS011;26968;42.686;23.352;2023-02-26T08:14:00;45.65;;;4.68;;
41233;SDS011;26968;42.686;23.352;2023-02-26T08:16:27;30.80;;;5.85;;
41233;SDS011;26968;42.686;23.352;2023-02-26T08:18:52;34.05;;;5.15;;
41233;SDS011;26968;42.686;23.352;2023-02-26T08:21:18;30.73;;;5.90;;
41233;SDS011;26968;42.686;23.352;2023-02-26T08:23:43;23.40;;;4.97;;
41233;SDS011;26968;42.686;23.352;2023-02-26T08:26:10;37.63;;;5.15;;
41233;SDS011;26968;42.686;23.352;2023-02-26T08:28:37;29.60;;;4.22;;
41233;SDS011;26968;42.686;23.352;2023-02-26T08:31:03;27.23;;;4.30;;
41233;SDS011;26968;42.686;23.352;2023-02-26T08:33:29;25.60;;;4.45;;
41233;SDS011;26968;42.686;23.352;2023-02-26T08:35:54;30.25;;;4.28;;
41233;SDS011;26968;42.686;23.352;2023-02-26T08:38:23;29.42;;;3.92;;
41233;SDS011;26968;42.686;23.352;2023-02-26T08:40:54;33.53;;;5.60;;
41233;SDS011;26968;42.686;23.352;2023-02-26T08:43:20;26.73;;;5.07;;
41233;SDS011;26968;42.686;23.352;2023-02-26T08:45:46;29.95;;;4.22;;
41233;SDS011;26968;42.686;23.352;2023-02-26T08:48:12;30.27;;;5.03;;
41233;SDS011;26968;42.686;23.352;2023-02-26T08:50:37;32.60;;;5.10;;
41233;SDS011;26968;42.686;23.352;2023-02-26T08:53:04;18.67;;;4.32;;
41233;SDS011;26968;42.686;23.352;2023-02-26T08:55:30;25.85;;;4.53;;
41233;SDS011;26968;42.686;23.352;2023-02-26T08:57:56;25.90;;;5.10;;
41233;SDS011;26968;42.686;23.352;2023-02-26T09:00:22;38.08;;;5.78;;
41233;SDS011;26968;42.686;23.352;2023-02-26T09:02:47;37.97;;;5.03;;
41233;SDS011;26968;42.686;23.352;2023-02-26T09:05:13;27.45;;;5.22;;
41233;SDS011;26968;42.686;23.352;2023-02-26T09:07:39;28.20;;;5.72;;
41233;SDS011;26968;42.686;23.352;2023-02-26T09:10:05;26.92;;;5.03;;
41233;SDS011;26968;42.686;23.352;2023-02-26T09:12:32;35.33;;;5.85;;
41233;SDS011;26968;42.686;23.352;2023-02-26T09:15:00;37.67;;;6.60;;
41233;SDS011;26968;42.686;23.352;2023-02-26T09:17:25;36.63;;;6.53;;
41233;SDS011;26968;42.686;23.352;2023-02-26T09:19:50;41.50;;;5.25;;
41233;SDS011;26968;42.686;23.352;2023-02-26T09:22:16;38.80;;;4.55;;
41233;SDS011;26968;42.686;23.352;2023-02-26T09:24:42;39.83;;;5.25;;
41233;SDS011;26968;42.686;23.352;2023-02-26T09:27:07;28.15;;;5.90;;
41233;SDS011;26968;42.686;23.352;2023-02-26T09:29:32;34.88;;;5.40;;
41233;SDS011;26968;42.686;23.352;2023-02-26T09:31:58;36.20;;;6.13;;
41233;SDS011;26968;42.686;23.352;2023-02-26T09:34:23;31.85;;;5.60;;
41233;SDS011;26968;42.686;23.352;2023-02-26T09:36:49;33.15;;;5.00;;
41233;SDS011;26968;42.686;23.352;2023-02-26T09:39:14;29.70;;;5.32;;
41233;SDS011;26968;42.686;23.352;2023-02-26T09:41:40;35.13;;;5.50;;
41233;SDS011;26968;42.686;23.352;2023-02-26T09:46:52;46.40;;;6.65;;
41233;SDS011;26968;42.686;23.352;2023-02-26T09:52:27;37.83;;;5.20;;
41233;SDS011;26968;42.686;23.352;2023-02-26T09:55:00;33.75;;;4.97;;
41233;SDS011;26968;42.686;23.352;2023-02-26T09:57:32;26.67;;;5.53;;
41233;SDS011;26968;42.686;23.352;2023-02-26T10:00:00;31.65;;;5.22;;
41233;SDS011;26968;42.686;23.352;2023-02-26T10:02:32;33.40;;;5.40;;
41233;SDS011;26968;42.686;23.352;2023-02-26T10:16:26;30.10;;;6.05;;
41233;SDS011;26968;42.686;23.352;2023-02-26T10:19:05;29.70;;;5.35;;
41233;SDS011;26968;42.686;23.352;2023-02-26T10:24:10;37.97;;;6.32;;
41233;SDS011;26968;42.686;23.352;2023-02-26T10:26:44;30.55;;;5.50;;
41233;SDS011;26968;42.686;23.352;2023-02-26T10:32:02;27.98;;;4.80;;
41233;SDS011;26968;42.686;23.352;2023-02-26T10:34:37;25.55;;;5.30;;
41233;SDS011;26968;42.686;23.352;2023-02-26T10:40:03;30.33;;;4.93;;
41233;SDS011;26968;42.686;23.352;2023-02-26T10:42:56;25.60;;;4.88;;
41233;SDS011;26968;42.686;23.352;2023-02-26T10:51:22;20.90;;;4.10;;
41233;SDS011;26968;42.686;23.352;2023-02-26T10:53:58;25.77;;;5.35;;
41233;SDS011;26968;42.686;23.352;2023-02-26T10:56:30;25.70;;;4.68;;
41233;SDS011;26968;42.686;23.352;2023-02-26T10:58:57;28.63;;;4.30;;
41233;SDS011;26968;42.686;23.352;2023-02-26T11:01:23;19.95;;;4.25;;
41233;SDS011;26968;42.686;23.352;2023-02-26T11:03:54;27.92;;;4.35;;
41233;SDS011;26968;42.686;23.352;2023-02-26T11:06:30;18.42;;;3.80;;
41233;SDS011;26968;42.686;23.352;2023-02-26T11:09:02;24.65;;;4.22;;
41233;SDS011;26968;42.686;23.352;2023-02-26T11:11:44;25.48;;;4.10;;
41233;SDS011;26968;42.686;23.352;2023-02-26T11:14:12;23.48;;;4.93;;
41233;SDS011;26968;42.686;23.352;2023-02-26T11:16:40;25.70;;;5.40;;
41233;SDS011;26968;42.686;23.352;2023-02-26T11:19:10;28.42;;;5.47;;
41233;SDS011;26968;42.686;23.352;2023-02-26T11:21:39;22.35;;;4.03;;
41233;SDS011;26968;42.686;23.352;2023-02-26T11:24:10;37.17;;;3.92;;
41233;SDS011;26968;42.686;23.352;2023-02-26T11:26:41;22.27;;;3.67;;
41233;SDS011;26968;42.686;23.352;2023-02-26T11:29:13;21.35;;;5.10;;
41233;SDS011;26968;42.686;23.352;2023-02-26T11:31:41;28.98;;;5.70;;
41233;SDS011;26968;42.686;23.352;2023-02-26T11:34:08;20.23;;;4.68;;
41233;SDS011;26968;42.686;23.352;2023-02-26T11:36:37;18.67;;;3.83;;
41233;SDS011;26968;42.686;23.352;2023-02-26T11:39:06;28.70;;;5.63;;
41233;SDS011;26968;42.686;23.352;2023-02-26T11:41:37;31.05;;;5.60;;
41233;SDS011;26968;42.686;23.352;2023-02-26T11:44:06;31.95;;;5.80;;
41233;SDS011;26968;42.686;23.352;2023-02-26T11:46:40;22.83;;;5.30;;
41233;SDS011;26968;42.686;23.352;2023-02-26T11:49:09;21.90;;;5.13;;
41233;SDS011;26968;42.686;23.352;2023-02-26T11:51:38;29.30;;;4.93;;
41233;SDS011;26968;42.686;23.352;2023-02-26T11:54:18;21.92;;;4.57;;
41233;SDS011;26968;42.686;23.352;2023-02-26T11:56:46;28.38;;;5.25;;
41233;SDS011;26968;42.686;23.352;2023-02-26T11:59:22;42.65;;;6.00;;
41233;SDS011;26968;42.686;23.352;2023-02-26T12:01:49;40.75;;;5.40;;
41233;SDS011;26968;42.686;23.352;2023-02-26T12:04:20;25.83;;;5.03;;
41233;SDS011;26968;42.686;23.352;2023-02-26T12:09:14;24.13;;;4.35;;
41233;SDS011;26968;42.686;23.352;2023-02-26T12:20:17;23.35;;;4.90;;
41233;SDS011;26968;42.686;23.352;2023-02-26T12:28:28;26.55;;;4.82;;
41233;SDS011;26968;42.686;23.352;2023-02-26T12:50:08;30.70;;;6.63;;
41233;SDS011;26968;42.686;23.352;2023-02-26T12:52:57;51.42;;;7.00;;
41233;SDS011;26968;42.686;23.352;2023-02-26T13:03:40;35.53;;;6.85;;
41233;SDS011;26968;42.686;23.352;2023-02-26T13:06:38;35.25;;;7.25;;
41233;SDS011;26968;42.686;23.352;2023-02-26T13:12:38;29.73;;;5.75;;
41233;SDS011;26968;42.686;23.352;2023-02-26T13:20:25;26.23;;;6.03;;
41233;SDS011;26968;42.686;23.352;2023-02-26T13:28:54;27.27;;;5.90;;
41233;SDS011;26968;42.686;23.352;2023-02-26T13:31:25;33.55;;;6.32;;
41233;SDS011;26968;42.686;23.352;2023-02-26T13:33:56;34.13;;;5.88;;
41233;SDS011;26968;42.686;23.352;2023-02-26T13:36:26;31.48;;;6.43;;
41233;SDS011;26968;42.686;23.352;2023-02-26T13:42:09;36.83;;;6.93;;
41233;SDS011;26968;42.686;23.352;2023-02-26T13:44:51;23.25;;;5.10;;
41233;SDS011;26968;42.686;23.352;2023-02-26T13:47:39;28.52;;;5.03;;
41233;SDS011;26968;42.686;23.352;2023-02-26T13:50:15;28.10;;;5.47;;
41233;SDS011;26968;42.686;23.352;2023-02-26T13:55:42;24.48;;;5.35;;
41233;SDS011;26968;42.686;23.352;2023-02-26T13:58:16;44.13;;;8.02;;
41233;SDS011;26968;42.686;23.352;2023-02-26T14:00:46;34.05;;;6.80;;
41233;SDS011;26968;42.686;23.352;2023-02-26T14:08:56;50.55;;;6.70;;
41233;SDS011;26968;42.686;23.352;2023-02-26T14:11:33;34.67;;;5.65;;
41233;SDS011;26968;42.686;23.352;2023-02-26T14:25:04;36.75;;;6.72;;
41233;SDS011;26968;42.686;23.352;2023-02-26T14:27:35;36.28;;;7.65;;
41233;SDS011;26968;42.686;23.352;2023-02-26T14:32:32;39.45;;;7.43;;
41233;SDS011;26968;42.686;23.352;2023-02-26T14:35:21;48.50;;;7.47;;
41233;SDS011;26968;42.686;23.352;2023-02-26T14:40:28;47.10;;;7.38;;
41233;SDS011;26968;42.686;23.352;2023-02-26T14:42:59;37.70;;;7.93;;
41233;SDS011;26968;42.686;23.352;2023-02-26T14:45:29;46.28;;;7.88;;
41233;SDS011;26968;42.686;23.352;2023-02-26T14:48:00;55.05;;;8.65;;
41233;SDS011;26968;42.686;23.352;2023-02-26T14:50:29;40.60;;;7.35;;
41233;SDS011;26968;42.686;23.352;2023-02-26T14:55:53;44.38;;;9.18;;
41233;SDS011;26968;42.686;23.352;2023-02-26T15:01:00;44.38;;;8.88;;
41233;SDS011;26968;42.686;23.352;2023-02-26T15:03:39;52.95;;;8.65;;
41233;SDS011;26968;42.686;23.352;2023-02-26T15:15:30;55.83;;;8.43;;
41233;SDS011;26968;42.686;23.352;2023-02-26T15:18:17;48.70;;;8.27;;
41233;SDS011;26968;42.686;23.352;2023-02-26T15:21:07;48.45;;;8.32;;
41233;SDS011;26968;42.686;23.352;2023-02-26T15:26:18;46.03;;;8.00;;
41233;SDS011;26968;42.686;23.352;2023-02-26T15:28:47;51.80;;;8.98;;
41233;SDS011;26968;42.686;23.352;2023-02-26T15:31:14;47.35;;;8.43;;
41233;SDS011;26968;42.686;23.352;2023-02-26T15:33:42;40.50;;;8.18;;
41233;SDS011;26968;42.686;23.352;2023-02-26T15:36:13;45.60;;;8.02;;
41233;SDS011;26968;42.686;23.352;2023-02-26T15:38:46;41.55;;;8.35;;
41233;SDS011;26968;42.686;23.352;2023-02-26T15:41:24;40.60;;;8.50;;
41233;SDS011;26968;42.686;23.352;2023-02-26T15:43:56;51.33;;;7.78;;
41233;SDS011;26968;42.686;23.352;2023-02-26T15:46:27;47.42;;;8.60;;
41233;SDS011;26968;42.686;23.352;2023-02-26T15:48:59;37.17;;;7.15;;
41233;SDS011;26968;42.686;23.352;2023-02-26T15:51:29;49.47;;;7.68;;
41233;SDS011;26968;42.686;23.352;2023-02-26T15:53:55;52.85;;;8.55;;
41233;SDS011;26968;42.686;23.352;2023-02-26T15:56:22;52.38;;;8.43;;
41233;SDS011;26968;42.686;23.352;2023-02-26T15:58:53;73.15;;;9.55;;
41233;SDS011;26968;42.686;23.352;2023-02-26T16:01:25;49.35;;;8.10;;
41233;SDS011;26968;42.686;23.352;2023-02-26T16:03:52;34.13;;;8.10;;
41233;SDS011;26968;42.686;23.352;2023-02-26T16:08:52;40.90;;;7.43;;
41233;SDS011;26968;42.686;23.352;2023-02-26T16:11:18;35.92;;;8.10;;
41233;SDS011;26968;42.686;23.352;2023-02-26T16:13:48;36.53;;;8.23;;
41233;SDS011;26968;42.686;23.352;2023-02-26T16:16:40;29.17;;;6.95;;
41233;SDS011;26968;42.686;23.352;2023-02-26T16:20:01;41.22;;;6.88;;
41233;SDS011;26968;42.686;23.352;2023-02-26T16:24:47;33.38;;;7.32;;
41233;SDS011;26968;42.686;23.352;2023-02-26T16:27:25;34.05;;;9.70;;
41233;SDS011;26968;42.686;23.352;2023-02-26T16:29:54;31.98;;;7.95;;
41233;SDS011;26968;42.686;23.352;2023-02-26T16:32:22;34.13;;;9.25;;
41233;SDS011;26968;42.686;23.352;2023-02-26T16:34:51;54.17;;;9.40;;
41233;SDS011;26968;42.686;23.352;2023-02-26T16:39:55;49.22;;;10.57;;
41233;SDS011;26968;42.686;23.352;2023-02-26T16:42:43;48.10;;;9.77;;
41233;SDS011;26968;42.686;23.352;2023-02-26T16:48:00;33.15;;;10.45;;
41233;SDS011;26968;42.686;23.352;2023-02-26T16:50:30;42.90;;;9.40;;
41233;SDS011;26968;42.686;23.352;2023-02-26T16:53:05;39.83;;;9.40;;
41233;SDS011;26968;42.686;23.352;2023-02-26T16:55:34;40.10;;;9.20;;
41233;SDS011;26968;42.686;23.352;2023-02-26T16:58:02;50.35;;;10.25;;
41233;SDS011;26968;42.686;23.352;2023-02-26T17:00:31;42.10;;;9.27;;
41233;SDS011;26968;42.686;23.352;2023-02-26T17:02:59;50.92;;;10.93;;
41233;SDS011;26968;42.686;23.352;2023-02-26T17:05:34;43.45;;;9.80;;
41233;SDS011;26968;42.686;23.352;2023-02-26T17:10:46;42.65;;;8.77;;
41233;SDS011;26968;42.686;23.352;2023-02-26T17:13:28;48.85;;;9.77;;
41233;SDS011;26968;42.686;23.352;2023-02-26T17:16:00;41.75;;;9.75;;
41233;SDS011;26968;42.686;23.352;2023-02-26T17:18:29;48.92;;;9.95;;
41233;SDS011;26968;42.686;23.352;2023-02-26T17:20:55;58.95;;;9.70;;
41233;SDS011;26968;42.686;23.352;2023-02-26T17:23:22;50.08;;;10.77;;
41233;SDS011;26968;42.686;23.352;2023-02-26T17:25:52;50.33;;;10.50;;
41233;SDS011;26968;42.686;23.352;2023-02-26T17:28:24;53.83;;;10.68;;
41233;SDS011;26968;42.686;23.352;2023-02-26T17:33:17;51.47;;;11.32;;
41233;SDS011;26968;42.686;23.352;2023-02-26T17:35:42;52.67;;;11.45;;
41233;SDS011;26968;42.686;23.352;2023-02-26T17:38:11;36.63;;;9.77;;
41233;SDS011;26968;42.686;23.352;2023-02-26T17:40:38;54.10;;;10.68;;
41233;SDS011;26968;42.686;23.352;2023-02-26T17:43:05;38.63;;;9.32;;
41233;SDS011;26968;42.686;23.352;2023-02-26T17:45:33;51.97;;;9.95;;
41233;SDS011;26968;42.686;23.352;2023-02-26T17:47:59;43.90;;;9.65;;
41233;SDS011;26968;42.686;23.352;2023-02-26T17:51:07;40.13;;;9.25;;
41233;SDS011;26968;42.686;23.352;2023-02-26T17:53:18;36.22;;;9.20;;
41233;SDS011;26968;42.686;23.352;2023-02-26T17:55:45;33.88;;;9.80;;
41233;SDS011;26968;42.686;23.352;2023-02-26T18:00:53;45.03;;;8.75;;
41233;SDS011;26968;42.686;23.352;2023-02-26T18:03:19;39.95;;;9.82;;
41233;SDS011;26968;42.686;23.352;2023-02-26T18:05:46;53.22;;;8.77;;